createdAt,value
2022-12-13T00:02:00.256Z,2.23
2022-12-13T00:04:28.155Z,2.24
2022-12-13T00:06:55.854Z,2.09
2022-12-13T00:09:23.642Z,1.99
2022-12-13T00:11:51.273Z,2.11
2022-12-13T00:14:18.767Z,1.79
2022-12-13T00:16:47.997Z,2.18
2022-12-13T00:19:16.452Z,2.42
2022-12-13T00:21:44.185Z,2.24
2022-12-13T00:24:12.213Z,2.24
2022-12-13T00:26:39.844Z,2.11
2022-12-13T00:29:08.285Z,2.42
2022-12-13T00:32:00.452Z,2.04
2022-12-13T00:34:24.882Z,2.30
2022-12-13T00:36:54.814Z,2.50
2022-12-13T00:39:22.569Z,2.53
2022-12-13T00:41:50.663Z,2.35
2022-12-13T00:44:20.044Z,2.20
2022-12-13T00:46:47.837Z,2.34
2022-12-13T00:49:15.826Z,2.44
2022-12-13T00:51:43.938Z,2.34
2022-12-13T00:54:11.857Z,2.61
2022-12-13T00:56:39.480Z,2.37
2022-12-13T00:59:07.369Z,1.92
2022-12-13T01:01:36.811Z,2.14
2022-12-13T01:04:06.089Z,2.42
2022-12-13T01:06:45.871Z,2.23
2022-12-13T01:09:22.240Z,2.20
2022-12-13T01:11:50.685Z,2.15
2022-12-13T01:14:19.071Z,2.22
2022-12-13T01:16:46.685Z,2.12
2022-12-13T01:19:14.314Z,2.17
2022-12-13T01:21:41.913Z,1.82
2022-12-13T01:24:09.567Z,1.90
2022-12-13T01:26:37.164Z,2.36
2022-12-13T01:29:05.923Z,2.59
2022-12-13T01:31:33.871Z,2.56
2022-12-13T01:34:10.787Z,2.62
2022-12-13T01:36:40.103Z,2.68
2022-12-13T01:39:14.756Z,2.78
2022-12-13T01:41:44.852Z,2.93
2022-12-13T01:44:49.852Z,2.93
2022-12-13T01:47:22.945Z,2.93
2022-12-13T01:49:54.612Z,2.87
2022-12-13T01:52:22.693Z,2.83
2022-12-13T01:54:55.673Z,2.41
2022-12-13T01:57:33.212Z,1.85
2022-12-13T02:00:01.541Z,1.98
2022-12-13T02:02:29.803Z,2.20
2022-12-13T02:05:11.812Z,2.07
2022-12-13T02:07:42.491Z,2.08
2022-12-13T02:10:11.236Z,2.19
2022-12-13T02:12:40.306Z,2.40
2022-12-13T02:15:17.113Z,2.46
2022-12-13T02:18:03.604Z,2.60
2022-12-13T02:20:49.158Z,2.65
2022-12-13T02:23:28.746Z,2.77
2022-12-13T02:25:56.323Z,2.96
2022-12-13T02:29:02.031Z,2.77
2022-12-13T02:31:47.634Z,2.62
2022-12-13T02:34:44.844Z,2.39
2022-12-13T02:37:25.410Z,2.15
2022-12-13T02:40:05.477Z,2.57
2022-12-13T02:42:49.414Z,2.47
2022-12-13T02:45:39.046Z,2.46
2022-12-13T02:48:10.471Z,2.51
2022-12-13T02:50:39.881Z,2.41
2022-12-13T02:53:09.855Z,2.28
2022-12-13T02:55:40.899Z,2.22
2022-12-13T02:58:13.860Z,2.65
2022-12-13T03:01:28.425Z,2.60
2022-12-13T03:04:24.824Z,2.69
2022-12-13T03:07:12.497Z,2.49
2022-12-13T03:10:08.522Z,2.68
2022-12-13T03:12:57.260Z,2.70
2022-12-13T03:15:34.586Z,2.86
2022-12-13T03:18:15.805Z,2.74
2022-12-13T03:20:48.794Z,2.75
2022-12-13T03:23:18.178Z,2.89
2022-12-13T03:25:49.955Z,2.87
2022-12-13T03:28:17.848Z,2.94
2022-12-13T03:30:45.813Z,3.05
2022-12-13T03:33:13.784Z,3.23
2022-12-13T03:35:44.746Z,3.16
2022-12-13T03:38:22.614Z,3.10
2022-12-13T03:40:54.234Z,3.14
2022-12-13T03:43:23.062Z,3.27
2022-12-13T03:45:52.245Z,3.03
2022-12-13T03:48:22.153Z,2.96
2022-12-13T03:50:52.495Z,3.06
2022-12-13T03:53:32.183Z,3.19
2022-12-13T03:56:06.569Z,2.90
2022-12-13T03:58:37.689Z,2.80
2022-12-13T04:01:11.246Z,2.73
2022-12-13T04:03:40.243Z,2.95
2022-12-13T04:06:08.410Z,3.05
2022-12-13T04:08:37.433Z,3.30
2022-12-13T04:11:25.853Z,2.98
2022-12-13T04:13:54.676Z,2.91
2022-12-13T04:16:23.603Z,3.05
2022-12-13T04:18:51.491Z,2.93
2022-12-13T04:21:19.150Z,2.91
2022-12-13T04:23:46.792Z,2.85
2022-12-13T04:26:14.383Z,2.69
2022-12-13T04:28:42.019Z,2.94
2022-12-13T04:31:09.723Z,2.94
2022-12-13T04:33:37.353Z,2.80
2022-12-13T04:36:05.176Z,2.90
2022-12-13T04:38:32.852Z,2.80
2022-12-13T04:41:16.491Z,3.09
2022-12-13T04:43:44.320Z,3.06
2022-12-13T04:46:12.386Z,2.92
2022-12-13T04:48:39.980Z,2.94
2022-12-13T04:51:07.673Z,3.03
2022-12-13T04:53:35.316Z,2.90
2022-12-13T04:56:05.051Z,2.87
2022-12-13T04:58:32.747Z,2.98
2022-12-13T05:01:01.382Z,3.04
2022-12-13T05:03:29.228Z,3.32
2022-12-13T05:05:57.062Z,3.28
2022-12-13T05:08:24.675Z,3.14
2022-12-13T05:10:54.204Z,2.54
2022-12-13T05:13:21.666Z,2.68
2022-12-13T05:15:57.593Z,2.87
2022-12-13T05:18:25.082Z,3.13
2022-12-13T05:20:53.275Z,3.10
2022-12-13T05:23:23.890Z,3.35
2022-12-13T05:25:52.640Z,3.34
2022-12-13T05:28:27.693Z,2.89
2022-12-13T05:30:59.210Z,3.14
2022-12-13T05:33:27.404Z,2.94
2022-12-13T05:36:00.033Z,2.83
2022-12-13T05:38:30.100Z,2.97
2022-12-13T05:40:58.458Z,3.06
2022-12-13T05:43:42.254Z,3.02
2022-12-13T05:46:16.664Z,3.04
2022-12-13T05:48:44.846Z,3.07
2022-12-13T05:51:12.398Z,3.06
2022-12-13T05:53:41.785Z,3.13
2022-12-13T05:56:11.484Z,2.59
2022-12-13T05:58:40.299Z,2.95
2022-12-13T06:01:13.025Z,2.98
2022-12-13T06:03:42.050Z,2.94
2022-12-13T06:06:11.757Z,3.13
2022-12-13T06:08:40.415Z,3.14
2022-12-13T06:11:10.838Z,3.20
2022-12-13T06:14:22.799Z,3.35
2022-12-13T06:16:52.712Z,3.23
2022-12-13T06:19:26.277Z,3.31
2022-12-13T06:21:55.266Z,3.07
2022-12-13T06:24:24.170Z,3.17
2022-12-13T06:26:52.215Z,3.10
2022-12-13T06:29:24.167Z,3.21
2022-12-13T06:32:01.180Z,3.30
2022-12-13T06:34:33.820Z,3.31
2022-12-13T06:37:04.815Z,3.25
2022-12-13T06:39:33.749Z,3.29
2022-12-13T06:42:03.137Z,3.35
2022-12-13T06:44:30.909Z,3.36
2022-12-13T06:47:11.492Z,3.08
2022-12-13T06:49:44.238Z,3.21
2022-12-13T06:52:14.249Z,2.94
2022-12-13T06:54:43.210Z,3.19
2022-12-13T06:57:12.500Z,3.17
2022-12-13T06:59:40.985Z,3.27
2022-12-13T07:02:15.465Z,3.20
2022-12-13T07:04:53.938Z,3.21
2022-12-13T07:07:21.826Z,3.21
2022-12-13T07:09:49.449Z,3.22
2022-12-13T07:12:16.973Z,3.13
2022-12-13T07:14:44.562Z,3.11
2022-12-13T07:17:12.184Z,2.93
2022-12-13T07:19:40.289Z,2.99
2022-12-13T07:22:07.901Z,3.07
2022-12-13T07:24:35.492Z,2.86
2022-12-13T07:27:03.798Z,2.79
2022-12-13T07:29:31.692Z,3.24
2022-12-13T07:32:01.152Z,3.08
2022-12-13T07:34:30.696Z,3.06
2022-12-13T07:36:58.447Z,3.32
2022-12-13T07:39:26.636Z,3.14
2022-12-13T07:41:57.394Z,3.11
2022-12-13T07:44:25.363Z,3.17
2022-12-13T07:46:53.154Z,3.25
2022-12-13T07:49:20.716Z,2.98
2022-12-13T07:51:49.233Z,2.99
2022-12-13T07:54:17.065Z,3.03
2022-12-13T07:56:46.016Z,2.80
2022-12-13T07:59:13.879Z,3.02
2022-12-13T08:01:41.514Z,3.16
2022-12-13T08:04:10.185Z,3.39
2022-12-13T08:06:38.315Z,3.56
2022-12-13T08:09:06.329Z,3.48
2022-12-13T08:11:34.688Z,3.36
2022-12-13T08:14:02.499Z,3.63
2022-12-13T08:16:30.417Z,3.64
2022-12-13T08:19:02.795Z,3.50
2022-12-13T08:21:55.718Z,3.76
2022-12-13T08:24:28.979Z,3.71
2022-12-13T08:27:03.261Z,3.86
2022-12-13T08:29:35.302Z,3.47
2022-12-13T08:32:07.265Z,3.84
2022-12-13T08:34:35.172Z,3.71
2022-12-13T08:37:04.329Z,3.88
2022-12-13T08:39:35.645Z,3.71
2022-12-13T08:42:15.796Z,3.62
2022-12-13T08:44:47.785Z,4.01
2022-12-13T08:47:22.916Z,4.12
2022-12-13T08:49:55.069Z,4.41
2022-12-13T08:52:24.044Z,4.23
2022-12-13T08:54:51.792Z,4.27
2022-12-13T08:57:19.728Z,3.91
2022-12-13T08:59:47.702Z,4.03
2022-12-13T09:02:16.459Z,3.73
2022-12-13T09:05:09.173Z,3.83
2022-12-13T09:07:39.594Z,3.65
2022-12-13T09:10:26.790Z,3.98
2022-12-13T09:13:01.337Z,3.59
2022-12-13T09:15:34.705Z,4.04
2022-12-13T09:18:04.824Z,3.99
2022-12-13T09:20:41.058Z,4.34
2022-12-13T09:23:13.578Z,4.35
2022-12-13T09:26:04.888Z,4.20
2022-12-13T09:28:35.471Z,4.20
2022-12-13T09:31:14.576Z,4.16
2022-12-13T09:33:42.796Z,4.42
2022-12-13T09:36:13.348Z,4.51
2022-12-13T09:38:40.951Z,4.31
2022-12-13T09:41:43.781Z,4.37
2022-12-13T09:44:32.234Z,4.05
2022-12-13T09:47:13.433Z,4.12
2022-12-13T09:49:52.555Z,4.21
2022-12-13T09:52:25.266Z,4.37
2022-12-13T09:54:56.041Z,4.54
2022-12-13T09:57:33.250Z,4.46
2022-12-13T10:00:08.572Z,4.40
2022-12-13T10:03:12.813Z,3.97
2022-12-13T10:05:45.282Z,4.02
2022-12-13T10:08:16.439Z,4.01
2022-12-13T10:10:44.607Z,4.13
2022-12-13T10:13:34.708Z,4.17
2022-12-13T10:16:12.219Z,4.13
2022-12-13T10:18:43.773Z,4.25
2022-12-13T10:21:43.070Z,4.24
2022-12-13T10:24:28.962Z,4.07
2022-12-13T10:27:15.460Z,4.23
2022-12-13T10:30:08.624Z,4.01
2022-12-13T10:32:56.621Z,4.10
2022-12-13T10:35:30.526Z,4.25
2022-12-13T10:38:20.979Z,4.27
2022-12-13T10:40:49.330Z,4.47
2022-12-13T10:43:20.497Z,4.27
2022-12-13T10:45:58.808Z,4.03
2022-12-13T10:48:49.442Z,4.41
2022-12-13T10:51:20.222Z,4.37
2022-12-13T10:54:00.829Z,4.35
2022-12-13T10:56:45.838Z,4.48
2022-12-13T10:59:21.169Z,4.89
2022-12-13T11:01:49.105Z,4.67
2022-12-13T11:04:34.094Z,4.56
2022-12-13T11:07:22.984Z,4.91
2022-12-13T11:09:52.809Z,4.79
2022-12-13T11:12:24.777Z,4.97
2022-12-13T11:15:02.056Z,5.14
2022-12-13T11:17:35.080Z,4.98
2022-12-13T11:20:06.229Z,5.16
2022-12-13T11:22:38.889Z,4.73
2022-12-13T11:25:15.795Z,4.91
2022-12-13T11:28:02.159Z,5.05
2022-12-13T11:31:01.256Z,4.74
2022-12-13T11:33:52.205Z,4.97
2022-12-13T11:36:50.198Z,5.12
2022-12-13T11:39:21.575Z,5.27
2022-12-13T11:41:59.562Z,5.07
2022-12-13T11:44:44.366Z,5.24
2022-12-13T11:47:22.487Z,5.13
2022-12-13T11:49:50.268Z,5.39
2022-12-13T11:52:45.053Z,5.24
2022-12-13T11:55:46.393Z,5.07
2022-12-13T11:59:08.569Z,4.96
2022-12-13T12:02:07.521Z,5.45
2022-12-13T12:04:59.626Z,4.95
2022-12-13T12:07:48.285Z,4.79
2022-12-13T12:10:49.772Z,4.49
2022-12-13T12:13:23.615Z,4.79
2022-12-13T12:15:59.234Z,4.89
2022-12-13T12:18:27.276Z,5.04
2022-12-13T12:21:23.090Z,4.80
2022-12-13T12:23:58.525Z,5.06
2022-12-13T12:27:12.992Z,5.04
2022-12-13T12:29:52.633Z,5.10
2022-12-13T12:32:20.239Z,5.01
2022-12-13T12:34:55.753Z,4.98
2022-12-13T12:37:34.015Z,5.07
2022-12-13T12:43:35.588Z,4.95
2022-12-13T12:47:01.599Z,5.12
2022-12-13T12:49:40.829Z,5.18
2022-12-13T12:52:26.726Z,5.15
2022-12-13T12:55:12.853Z,5.08
2022-12-13T12:58:08.624Z,4.96
2022-12-13T13:01:02.330Z,4.79
2022-12-13T13:03:36.539Z,4.96
2022-12-13T13:06:29.241Z,5.06
2022-12-13T13:09:09.531Z,5.27
2022-12-13T13:11:45.196Z,5.03
2022-12-13T13:14:37.335Z,4.76
2022-12-13T13:17:17.002Z,4.87
2022-12-13T13:19:47.875Z,5.24
2022-12-13T13:22:43.263Z,5.12
2022-12-13T13:26:00.316Z,5.07
2022-12-13T13:28:27.267Z,5.38
2022-12-13T13:31:08.298Z,5.29
2022-12-13T13:33:46.026Z,4.87
2022-12-13T13:36:41.874Z,4.93
2022-12-13T13:39:19.333Z,5.24
2022-12-13T13:41:49.774Z,5.05
2022-12-13T13:44:55.195Z,4.75
2022-12-13T13:47:22.882Z,4.67
2022-12-13T13:50:01.617Z,4.42
2022-12-13T13:52:44.474Z,4.53
2022-12-13T13:55:23.155Z,4.74
2022-12-13T13:58:22.189Z,5.10
2022-12-13T14:01:14.547Z,4.82
2022-12-13T14:04:04.126Z,5.00
2022-12-13T14:07:09.511Z,5.23
2022-12-13T14:10:07.897Z,5.16
2022-12-13T14:13:13.789Z,5.02
2022-12-13T14:16:00.594Z,4.50
2022-12-13T14:19:05.239Z,4.84
2022-12-13T14:21:46.678Z,4.65
2022-12-13T14:24:22.987Z,4.78
2022-12-13T14:27:14.225Z,4.70
2022-12-13T14:29:48.337Z,4.95
2022-12-13T14:32:37.065Z,4.62
2022-12-13T14:41:32.516Z,4.46
2022-12-13T14:44:21.319Z,4.67
2022-12-13T14:46:55.720Z,4.90
2022-12-13T14:53:55.066Z,4.81
2022-12-13T14:57:17.856Z,4.86
2022-12-13T14:59:51.079Z,4.91
2022-12-13T15:02:31.031Z,4.66
2022-12-13T15:05:04.030Z,4.69
2022-12-13T15:07:36.647Z,4.54
2022-12-13T15:10:30.152Z,4.56
2022-12-13T15:12:57.815Z,4.72
2022-12-13T15:15:37.509Z,4.71
2022-12-13T15:18:26.180Z,4.81
2022-12-13T15:21:03.724Z,4.70
2022-12-13T15:23:59.910Z,4.69
2022-12-13T15:26:40.720Z,4.60
2022-12-13T15:29:10.185Z,4.66
2022-12-13T15:31:40.632Z,4.91
2022-12-13T15:34:30.965Z,5.10
2022-12-13T15:37:02.071Z,5.00
2022-12-13T15:39:31.350Z,5.13
2022-12-13T15:41:59.644Z,5.05
2022-12-13T15:44:48.106Z,4.99
2022-12-13T15:47:38.155Z,4.96
2022-12-13T15:51:11.787Z,4.68
2022-12-13T15:58:36.323Z,4.60
2022-12-13T16:08:45.853Z,4.68
2022-12-13T16:11:51.704Z,4.66
2022-12-13T16:14:31.630Z,4.80
2022-12-13T16:17:22.686Z,4.75
2022-12-13T16:19:51.772Z,4.61
2022-12-13T16:22:21.824Z,4.74
2022-12-13T16:24:50.774Z,4.87
2022-12-13T16:27:18.433Z,4.84
2022-12-13T16:29:46.013Z,5.03
2022-12-13T16:32:13.615Z,4.80
2022-12-13T16:34:41.306Z,4.73
2022-12-13T16:37:26.041Z,4.66
2022-12-13T16:39:55.061Z,4.76
2022-12-13T16:42:25.967Z,4.72
2022-12-13T16:45:40.642Z,4.88
2022-12-13T16:47:49.163Z,4.81
2022-12-13T16:50:45.889Z,4.70
2022-12-13T16:53:17.508Z,4.29
2022-12-13T16:55:46.559Z,4.59
2022-12-13T16:58:26.468Z,4.86
2022-12-13T17:00:58.844Z,4.74
2022-12-13T17:03:27.733Z,4.59
2022-12-13T17:05:58.713Z,4.67
2022-12-13T17:08:26.626Z,4.64
2022-12-13T17:10:57.732Z,4.42
2022-12-13T17:13:27.183Z,4.70
2022-12-13T17:15:59.118Z,4.69
2022-12-13T17:18:28.475Z,4.66
2022-12-13T17:20:58.232Z,4.65
2022-12-13T17:23:27.550Z,4.69
2022-12-13T17:25:58.677Z,4.77
2022-12-13T17:28:26.361Z,4.84
2022-12-13T17:30:54.568Z,4.64
2022-12-13T17:33:22.907Z,4.49
2022-12-13T17:35:51.509Z,4.67
2022-12-13T17:38:19.038Z,4.74
2022-12-13T17:40:54.335Z,4.64
2022-12-13T17:43:33.005Z,4.65
2022-12-13T17:46:08.636Z,4.78
2022-12-13T17:48:40.692Z,4.69
2022-12-13T17:51:10.514Z,4.53
2022-12-13T17:53:56.223Z,4.57
2022-12-13T17:56:23.757Z,4.45
2022-12-13T17:58:51.203Z,4.31
2022-12-13T18:01:21.844Z,4.61
2022-12-13T18:03:52.536Z,4.50
2022-12-13T18:06:20.166Z,4.36
2022-12-13T18:08:48.285Z,4.70
2022-12-13T18:11:34.429Z,4.83
2022-12-13T18:14:04.518Z,4.95
2022-12-13T18:16:36.834Z,4.91
2022-12-13T18:19:09.150Z,4.81
2022-12-13T18:21:37.368Z,4.61
2022-12-13T18:24:06.433Z,4.20
2022-12-13T18:26:34.500Z,4.47
2022-12-13T18:29:02.944Z,4.41
2022-12-13T18:31:30.636Z,4.41
2022-12-13T18:33:58.339Z,4.40
2022-12-13T18:36:26.311Z,4.46
2022-12-13T18:38:54.099Z,4.33
2022-12-13T18:41:28.298Z,4.39
2022-12-13T18:43:59.380Z,4.61
2022-12-13T18:46:29.545Z,4.96
2022-12-13T18:48:57.893Z,4.66
2022-12-13T18:51:26.217Z,4.50
2022-12-13T18:53:54.974Z,4.45
2022-12-13T18:56:23.278Z,4.37
2022-12-13T18:58:51.287Z,4.49
2022-12-13T19:01:20.349Z,4.62
2022-12-13T19:03:48.721Z,4.54
2022-12-13T19:06:24.770Z,4.62
2022-12-13T19:08:54.781Z,4.82
2022-12-13T19:11:23.467Z,4.77
2022-12-13T19:13:50.926Z,4.83
2022-12-13T19:16:21.275Z,5.21
2022-12-13T19:18:49.347Z,5.16
2022-12-13T19:21:19.926Z,4.95
2022-12-13T19:23:55.034Z,4.89
2022-12-13T19:26:25.945Z,4.61
2022-12-13T19:28:54.793Z,4.59
2022-12-13T19:31:27.082Z,4.30
2022-12-13T19:33:59.485Z,4.49
2022-12-13T19:36:27.020Z,4.82
2022-12-13T19:38:58.004Z,4.77
2022-12-13T19:41:26.377Z,4.74
2022-12-13T19:43:54.203Z,4.40
2022-12-13T19:46:22.166Z,4.73
2022-12-13T19:48:49.916Z,4.68
2022-12-13T19:51:17.974Z,4.78
2022-12-13T19:53:45.704Z,4.91
2022-12-13T19:56:17.630Z,4.60
2022-12-13T19:58:46.984Z,4.56
2022-12-13T20:01:15.751Z,4.58
2022-12-13T20:03:47.882Z,4.39
2022-12-13T20:06:19.283Z,4.37
2022-12-13T20:08:47.031Z,4.60
2022-12-13T20:11:19.485Z,4.82
2022-12-13T20:13:48.466Z,4.70
2022-12-13T20:16:22.296Z,4.65
2022-12-13T20:18:57.691Z,4.49
2022-12-13T20:21:26.282Z,4.68
2022-12-13T20:23:54.381Z,4.82
2022-12-13T20:26:27.235Z,4.82
2022-12-13T20:28:56.139Z,4.89
2022-12-13T20:31:42.693Z,4.67
2022-12-13T20:34:16.273Z,4.68
2022-12-13T20:36:43.814Z,4.63
2022-12-13T20:39:14.636Z,4.74
2022-12-13T20:41:42.886Z,4.53
2022-12-13T20:44:12.741Z,4.48
2022-12-13T20:47:05.893Z,4.57
2022-12-13T20:49:33.722Z,4.70
2022-12-13T20:52:01.390Z,4.67
2022-12-13T20:54:29.061Z,4.49
2022-12-13T20:56:56.675Z,4.46
2022-12-13T20:59:24.297Z,4.17
2022-12-13T21:01:52.897Z,4.25
2022-12-13T21:04:23.058Z,4.31
2022-12-13T21:06:52.551Z,4.47
2022-12-13T21:09:20.641Z,4.38
2022-12-13T21:11:49.031Z,4.25
2022-12-13T21:14:22.405Z,4.09
2022-12-13T21:16:57.608Z,4.43
2022-12-13T21:19:36.115Z,4.31
2022-12-13T21:22:07.422Z,4.30
2022-12-13T21:24:35.018Z,4.41
2022-12-13T21:27:02.681Z,4.03
2022-12-13T21:29:30.176Z,4.39
2022-12-13T21:31:57.842Z,4.24
2022-12-13T21:34:25.384Z,4.35
2022-12-13T21:36:53.158Z,4.46
2022-12-13T21:39:28.325Z,4.48
2022-12-13T21:41:56.284Z,4.33
2022-12-13T21:44:24.141Z,4.38
2022-12-13T21:47:11.920Z,4.42
2022-12-13T21:49:40.279Z,4.28
2022-12-13T21:52:07.735Z,4.13
2022-12-13T21:54:35.307Z,4.10
2022-12-13T21:57:21.807Z,4.19
2022-12-13T21:59:49.381Z,4.00
2022-12-13T22:02:19.085Z,4.08
2022-12-13T22:04:48.214Z,4.24
2022-12-13T22:07:21.892Z,4.06
2022-12-13T22:09:50.271Z,4.18
2022-12-13T22:12:18.121Z,4.06
2022-12-13T22:14:46.795Z,3.95
2022-12-13T22:17:14.810Z,4.25
2022-12-13T22:19:42.390Z,3.72
2022-12-13T22:22:11.058Z,3.86
2022-12-13T22:24:38.608Z,3.85
2022-12-13T22:27:06.129Z,3.98
2022-12-13T22:29:33.737Z,4.14
2022-12-13T22:32:01.385Z,4.36
2022-12-13T22:34:29.530Z,4.24
2022-12-13T22:36:57.257Z,4.34
2022-12-13T22:39:24.802Z,4.55
2022-12-13T22:41:52.957Z,4.31
2022-12-13T22:44:20.877Z,4.49
2022-12-13T22:46:48.452Z,4.39
2022-12-13T22:49:16.173Z,4.26
2022-12-13T22:51:43.832Z,3.95
2022-12-13T22:54:11.483Z,3.84
2022-12-13T22:56:39.250Z,3.85
2022-12-13T22:59:09.993Z,3.62
2022-12-13T23:01:40.675Z,4.00
2022-12-13T23:04:08.473Z,4.22
2022-12-13T23:07:05.768Z,4.14
2022-12-13T23:09:36.530Z,4.24
2022-12-13T23:12:23.270Z,4.36
2022-12-13T23:14:51.661Z,4.31
2022-12-13T23:17:19.480Z,4.45
2022-12-13T23:19:53.392Z,3.98
2022-12-13T23:22:25.768Z,4.14
2022-12-13T23:24:53.787Z,4.30
2022-12-13T23:27:23.533Z,4.41
2022-12-13T23:29:51.152Z,4.55
2022-12-13T23:32:18.836Z,4.53
2022-12-13T23:34:46.316Z,4.11
2022-12-13T23:37:22.420Z,4.00
2022-12-13T23:39:53.405Z,3.95
2022-12-13T23:42:20.941Z,3.81
2022-12-13T23:44:48.422Z,3.83
2022-12-13T23:47:18.056Z,3.74
2022-12-13T23:49:45.652Z,3.82
2022-12-13T23:52:16.147Z,3.96
2022-12-13T23:54:43.829Z,3.81
2022-12-13T23:57:11.391Z,3.87
2022-12-13T23:59:38.971Z,3.65
